Time;durP1;ratioP1;P1;durP2;ratioP2;P2;SDS_P1;SDS_P2;PMS_P1;PMS_P2;Temp;Humidity;BMP_temperature;BMP_pressure;BME280_temperature;BME280_humidity;BME280_pressure;Samples;Min_cycle;Max_cycle;Signal;HPM_P1;HPM_P2
2023/10/05 00:03:38;;;;;;;7.23;3.50;;;10.00;99.90;;;;;;4996676;28;20222;-82
2023/10/05 00:06:13;;;;;;;7.43;2.90;;;9.90;99.90;;;;;;4996523;28;20193;-81
2023/10/05 00:08:49;;;;;;;6.33;3.10;;;9.90;99.90;;;;;;4996254;28;20195;-81
2023/10/05 00:11:31;;;;;;;7.77;3.10;;;9.90;99.90;;;;;;4995966;28;20191;-83
2023/10/05 00:13:59;;;;;;;7.43;3.43;;;9.90;99.90;;;;;;4994575;28;20178;-81
2023/10/05 00:16:38;;;;;;;8.50;3.47;;;9.90;99.90;;;;;;4994707;28;20195;-82
2023/10/05 00:19:08;;;;;;;6.63;3.37;;;9.90;99.90;;;;;;4995648;28;20280;-81
2023/10/05 00:21:35;;;;;;;8.37;3.60;;;10.00;99.90;;;;;;4994570;28;20179;-81
2023/10/05 00:24:06;;;;;;;7.03;3.67;;;10.00;99.90;;;;;;4995766;28;20180;-81
2023/10/05 00:26:36;;;;;;;7.80;3.70;;;10.00;99.90;;;;;;4994674;28;20211;-82
2023/10/05 00:31:41;;;;;;;8.23;3.50;;;10.20;99.90;;;;;;4995779;28;20675;-82
2023/10/05 00:34:24;;;;;;;6.97;3.40;;;10.20;99.90;;;;;;4995813;28;20247;-82
2023/10/05 00:36:52;;;;;;;8.40;4.20;;;10.20;99.90;;;;;;4995505;28;20199;-82
2023/10/05 00:39:21;;;;;;;7.60;3.23;;;10.30;99.90;;;;;;4995527;28;20188;-81
2023/10/05 00:44:34;;;;;;;6.57;3.20;;;10.20;99.90;;;;;;4995803;28;20239;-81
2023/10/05 00:47:01;;;;;;;6.10;3.27;;;10.10;99.90;;;;;;4994100;28;20254;-83
2023/10/05 00:49:53;;;;;;;6.63;3.33;;;10.00;99.90;;;;;;5078185;23;20226;-82
2023/10/05 00:52:25;;;;;;;5.77;3.40;;;10.00;99.90;;;;;;5031930;28;20163;-82
2023/10/05 00:54:54;;;;;;;8.27;3.93;;;10.00;99.90;;;;;;5014676;28;20179;-82
2023/10/05 00:57:24;;;;;;;5.70;3.43;;;10.10;99.90;;;;;;5014593;28;20175;-82
2023/10/05 01:02:31;;;;;;;6.00;3.47;;;10.10;99.90;;;;;;5032341;28;20662;-82
2023/10/05 01:05:01;;;;;;;9.10;3.73;;;10.10;99.90;;;;;;5014776;28;20213;-81
2023/10/05 01:07:43;;;;;;;6.80;3.70;;;10.10;99.90;;;;;;5032153;28;20174;-82
2023/10/05 01:12:41;;;;;;;8.17;3.80;;;10.10;99.90;;;;;;5031793;28;20182;-82
2023/10/05 01:15:09;;;;;;;9.27;4.17;;;10.10;99.90;;;;;;5032177;28;20201;-82
2023/10/05 01:17:36;;;;;;;6.40;3.70;;;10.10;99.90;;;;;;5032110;28;20256;-82
2023/10/05 01:20:22;;;;;;;7.37;3.50;;;10.20;99.90;;;;;;5031998;28;20661;-82
2023/10/05 01:22:58;;;;;;;8.23;3.53;;;10.20;99.90;;;;;;5014261;28;20205;-82
2023/10/05 01:25:25;;;;;;;8.23;3.50;;;10.20;99.90;;;;;;5032107;28;20200;-82
2023/10/05 01:27:52;;;;;;;7.63;3.67;;;10.20;99.90;;;;;;5014110;28;20194;-82
2023/10/05 01:30:19;;;;;;;6.07;3.33;;;10.10;99.90;;;;;;5014195;28;20181;-82
2023/10/05 01:32:45;;;;;;;5.37;3.17;;;10.00;99.90;;;;;;5031768;28;20170;-82
2023/10/05 01:35:20;;;;;;;6.97;3.60;;;10.00;99.90;;;;;;5031743;28;20273;-81
2023/10/05 01:37:51;;;;;;;6.83;3.77;;;10.10;99.90;;;;;;5014003;28;20622;-81
2023/10/05 01:42:47;;;;;;;6.63;3.80;;;10.00;99.90;;;;;;5031848;28;20570;-82
2023/10/05 01:45:16;;;;;;;6.47;3.50;;;9.90;99.90;;;;;;5016596;28;20290;-82
2023/10/05 01:47:45;;;;;;;6.60;3.30;;;9.80;99.90;;;;;;5035446;28;20180;-82
2023/10/05 01:50:18;;;;;;;8.20;4.13;;;9.80;99.90;;;;;;5035547;28;20186;-82
2023/10/05 01:53:07;;;;;;;6.60;3.43;;;9.80;99.90;;;;;;5017894;28;20561;-82
2023/10/05 01:55:36;;;;;;;7.83;3.70;;;9.80;99.90;;;;;;5017960;28;20278;-82
2023/10/05 01:58:07;;;;;;;6.53;3.73;;;9.90;99.90;;;;;;5017670;28;20281;-82
2023/10/05 02:00:37;;;;;;;7.90;3.10;;;9.90;99.90;;;;;;5017591;28;20182;-82
2023/10/05 02:03:11;;;;;;;5.43;2.90;;;9.90;99.90;;;;;;5017864;28;20278;-81
2023/10/05 02:05:37;;;;;;;7.63;3.77;;;9.90;99.90;;;;;;5035453;28;20576;-82
2023/10/05 02:08:03;;;;;;;6.97;3.50;;;9.90;99.90;;;;;;5035383;28;20200;-82
2023/10/05 02:10:32;;;;;;;7.00;3.60;;;9.90;99.90;;;;;;5035511;28;20175;-81
2023/10/05 02:13:01;;;;;;;6.90;3.20;;;9.70;99.90;;;;;;5035015;28;20601;-82
2023/10/05 02:15:30;;;;;;;6.03;3.87;;;9.70;99.90;;;;;;5035185;28;20268;-82
2023/10/05 02:18:13;;;;;;;6.53;3.30;;;9.70;99.90;;;;;;5017322;28;20212;-82
2023/10/05 02:20:42;;;;;;;8.73;3.80;;;9.70;99.90;;;;;;5035041;28;20181;-82
2023/10/05 02:23:28;;;;;;;6.70;3.70;;;9.80;99.90;;;;;;5035107;28;20198;-82
2023/10/05 02:26:00;;;;;;;7.80;3.80;;;9.90;99.90;;;;;;5034886;28;20682;-81
2023/10/05 02:28:25;;;;;;;6.80;3.73;;;9.90;99.90;;;;;;5033617;28;20195;-82
2023/10/05 02:30:53;;;;;;;7.63;4.20;;;10.00;99.90;;;;;;5016821;28;20542;-82
2023/10/05 02:33:23;;;;;;;7.10;3.93;;;10.00;99.90;;;;;;5033583;28;20262;-82
2023/10/05 02:35:50;;;;;;;8.73;3.77;;;10.10;99.90;;;;;;5034691;28;20526;-82
2023/10/05 02:38:21;;;;;;;7.93;3.43;;;10.10;99.90;;;;;;5016810;28;20194;-82
2023/10/05 02:40:54;;;;;;;7.70;3.90;;;10.10;99.90;;;;;;5027308;28;20176;-81
2023/10/05 02:43:26;;;;;;;6.43;3.67;;;10.10;99.90;;;;;;5016915;28;20178;-82
2023/10/05 02:45:56;;;;;;;7.67;3.63;;;10.00;99.90;;;;;;5016696;28;20708;-82
2023/10/05 02:48:23;;;;;;;5.17;3.40;;;10.10;99.90;;;;;;5034431;28;20587;-82
2023/10/05 02:50:51;;;;;;;5.87;3.27;;;10.00;99.90;;;;;;5016907;28;20198;-82
2023/10/05 02:53:18;;;;;;;6.40;3.33;;;10.00;99.90;;;;;;5034381;28;20269;-82
2023/10/05 02:55:51;;;;;;;6.53;3.90;;;10.00;99.90;;;;;;5034111;28;20186;-82
2023/10/05 02:58:17;;;;;;;8.17;3.90;;;10.00;99.90;;;;;;5034468;28;20208;-82
2023/10/05 03:00:44;;;;;;;8.83;3.73;;;10.00;99.90;;;;;;5016303;28;20269;-80
2023/10/05 03:03:14;;;;;;;8.40;3.90;;;10.10;99.90;;;;;;5033144;28;20174;-82
2023/10/05 03:05:41;;;;;;;6.53;3.47;;;10.10;99.90;;;;;;5034234;28;20683;-82
2023/10/05 03:08:09;;;;;;;9.33;3.97;;;10.10;99.90;;;;;;5016321;28;20190;-82
2023/10/05 03:10:35;;;;;;;7.33;4.10;;;10.00;99.90;;;;;;5034149;28;20185;-82
2023/10/05 03:13:02;;;;;;;5.90;3.70;;;10.00;99.90;;;;;;5034148;28;20178;-82
2023/10/05 03:15:28;;;;;;;6.57;3.67;;;10.00;99.90;;;;;;5034116;28;20182;-82
2023/10/05 03:17:57;;;;;;;6.20;3.93;;;10.00;99.90;;;;;;5034146;28;20198;-82
2023/10/05 03:20:24;;;;;;;7.23;4.13;;;10.10;99.90;;;;;;5032625;28;20178;-82
2023/10/05 03:22:54;;;;;;;10.33;4.20;;;10.10;99.90;;;;;;5033646;28;20655;-82
2023/10/05 03:25:21;;;;;;;11.87;4.10;;;10.20;99.90;;;;;;5032730;28;20202;-82
2023/10/05 03:27:48;;;;;;;8.80;4.07;;;10.20;99.90;;;;;;5033634;28;20240;-82
2023/10/05 03:30:14;;;;;;;8.07;3.40;;;10.20;99.90;;;;;;5033134;28;20194;-82
2023/10/05 03:32:41;;;;;;;10.10;3.83;;;10.20;99.90;;;;;;5032220;28;20166;-82
2023/10/05 03:35:09;;;;;;;7.77;4.20;;;10.30;99.90;;;;;;5033413;28;20578;-82
2023/10/05 03:37:39;;;;;;;8.43;4.00;;;10.30;99.90;;;;;;5015817;28;20270;-82
2023/10/05 03:42:31;;;;;;;9.70;4.10;;;10.30;99.90;;;;;;5033340;28;20237;-82
2023/10/05 03:45:04;;;;;;;7.33;3.67;;;10.30;99.90;;;;;;5015719;28;20206;-82
2023/10/05 03:47:39;;;;;;;6.87;3.50;;;10.30;99.90;;;;;;5015756;28;20178;-82
2023/10/05 03:50:06;;;;;;;7.30;3.60;;;10.30;99.90;;;;;;5033736;28;20237;-82
2023/10/05 03:52:35;;;;;;;9.17;4.10;;;10.40;99.90;;;;;;5015496;28;20166;-82
2023/10/05 03:55:09;;;;;;;7.73;3.60;;;10.40;99.90;;;;;;5015667;28;20198;-82
2023/10/05 03:57:35;;;;;;;8.23;4.03;;;10.40;99.90;;;;;;5015781;28;20181;-82
2023/10/05 04:00:18;;;;;;;7.53;3.43;;;10.40;99.90;;;;;;5033404;28;20248;-82
2023/10/05 04:02:44;;;;;;;6.63;3.70;;;10.40;99.90;;;;;;5033080;28;20192;-82
2023/10/05 04:05:11;;;;;;;7.53;3.73;;;10.40;99.90;;;;;;5015402;28;20620;-82
2023/10/05 04:07:37;;;;;;;6.93;3.67;;;10.40;99.90;;;;;;5014592;28;20556;-82
2023/10/05 04:10:05;;;;;;;7.70;3.77;;;10.40;99.90;;;;;;5015647;28;20175;-81
2023/10/05 04:12:32;;;;;;;9.03;3.67;;;10.40;99.90;;;;;;5032835;28;20541;-82
2023/10/05 04:15:00;;;;;;;7.43;3.77;;;10.40;99.90;;;;;;5032915;28;20178;-82
2023/10/05 04:17:26;;;;;;;7.13;3.90;;;10.50;99.90;;;;;;5015131;28;20174;-82
2023/10/05 04:19:52;;;;;;;7.60;3.77;;;10.40;99.90;;;;;;5015195;28;20175;-82
2023/10/05 04:22:18;;;;;;;8.30;3.70;;;10.40;99.90;;;;;;5032547;28;20184;-82
2023/10/05 04:24:45;;;;;;;8.57;3.63;;;10.40;99.90;;;;;;5032840;28;20174;-82
2023/10/05 04:27:12;;;;;;;7.47;3.90;;;10.40;99.90;;;;;;5032798;28;20593;-82
2023/10/05 04:29:37;;;;;;;10.77;4.50;;;10.50;99.90;;;;;;5015051;28;20196;-82
2023/10/05 04:32:12;;;;;;;9.73;4.03;;;10.40;99.90;;;;;;5032405;28;20186;-82
2023/10/05 04:34:37;;;;;;;8.90;3.77;;;10.40;99.90;;;;;;5032447;28;20211;-82
2023/10/05 04:37:03;;;;;;;8.23;4.20;;;10.40;99.90;;;;;;5032387;28;20597;-82
2023/10/05 04:39:30;;;;;;;8.40;4.10;;;10.40;99.90;;;;;;5032796;28;20269;-82
2023/10/05 04:42:10;;;;;;;7.73;4.20;;;10.40;99.90;;;;;;5014716;28;20170;-82
2023/10/05 04:44:37;;;;;;;7.90;3.97;;;10.50;99.90;;;;;;5032219;28;20261;-82
2023/10/05 04:47:06;;;;;;;7.37;3.87;;;10.40;99.90;;;;;;5032220;28;20179;-82
2023/10/05 04:49:35;;;;;;;7.83;3.67;;;10.50;99.90;;;;;;5032023;28;20202;-82
2023/10/05 04:52:04;;;;;;;8.40;3.83;;;10.50;99.90;;;;;;5032133;28;20173;-82
2023/10/05 04:54:34;;;;;;;12.07;4.30;;;10.50;99.90;;;;;;5032374;28;20186;-82
2023/10/05 04:57:07;;;;;;;9.97;4.20;;;10.50;99.90;;;;;;5032402;28;20174;-82
2023/10/05 05:02:12;;;;;;;9.43;4.37;;;10.50;99.90;;;;;;5032203;28;20189;-83
2023/10/05 05:04:41;;;;;;;10.53;4.30;;;10.50;99.90;;;;;;5032098;28;20200;-82
2023/10/05 05:07:09;;;;;;;8.27;4.60;;;10.50;99.90;;;;;;5032203;28;20626;-83
2023/10/05 05:09:39;;;;;;;11.60;4.80;;;10.40;99.90;;;;;;5032041;28;20210;-85
2023/10/05 05:12:19;;;;;;;7.97;4.43;;;10.40;99.90;;;;;;5030874;28;20261;-83
2023/10/05 05:14:53;;;;;;;10.77;4.37;;;10.50;99.90;;;;;;5032367;28;20197;-83
2023/10/05 05:17:19;;;;;;;8.60;4.57;;;10.40;99.90;;;;;;5031093;28;20189;-82
2023/10/05 05:19:51;;;;;;;11.57;4.43;;;10.40;99.90;;;;;;5033937;28;20244;-82
2023/10/05 05:22:18;;;;;;;8.33;5.00;;;10.40;99.90;;;;;;5036138;28;20178;-82
2023/10/05 05:24:44;;;;;;;10.30;5.10;;;10.40;99.90;;;;;;5035976;28;20643;-82
2023/10/05 05:29:45;;;;;;;8.87;4.50;;;10.40;99.90;;;;;;5031538;28;20574;-83
2023/10/05 05:32:11;;;;;;;8.07;4.93;;;10.40;99.90;;;;;;5034439;28;20555;-81
2023/10/05 05:34:37;;;;;;;11.13;5.07;;;10.30;99.90;;;;;;5036078;28;20170;-82
2023/10/05 05:37:04;;;;;;;9.83;4.77;;;10.30;99.90;;;;;;5036203;28;20232;-83
2023/10/05 05:39:37;;;;;;;8.73;4.50;;;10.40;99.90;;;;;;5036189;28;20190;-83
2023/10/05 05:42:06;;;;;;;11.50;5.20;;;10.30;99.90;;;;;;5035507;28;20167;-82
2023/10/05 05:44:34;;;;;;;9.07;4.57;;;10.30;99.90;;;;;;5018366;28;20170;-82
2023/10/05 05:47:10;;;;;;;11.33;4.93;;;10.30;99.90;;;;;;5034559;28;20175;-81
2023/10/05 05:49:41;;;;;;;12.23;4.83;;;10.30;99.90;;;;;;5034892;28;20213;-82
2023/10/05 05:52:08;;;;;;;8.67;5.33;;;10.30;99.90;;;;;;5017843;28;20265;-86
2023/10/05 05:54:35;;;;;;;13.80;4.97;;;10.30;99.90;;;;;;5035610;28;20738;-85
2023/10/05 05:57:05;;;;;;;9.97;4.90;;;10.30;99.90;;;;;;5035478;28;20183;-84
2023/10/05 05:59:30;;;;;;;8.60;5.40;;;10.30;99.90;;;;;;5035345;28;20566;-84
2023/10/05 06:01:56;;;;;;;10.30;4.90;;;10.30;99.90;;;;;;5035083;28;20174;-84
2023/10/05 06:04:21;;;;;;;8.10;4.60;;;10.40;99.90;;;;;;5017331;28;20650;-84
2023/10/05 06:06:48;;;;;;;8.03;4.93;;;10.40;99.90;;;;;;5017724;28;20204;-83
2023/10/05 06:09:19;;;;;;;9.57;4.77;;;10.30;99.90;;;;;;5033869;28;20198;-81
2023/10/05 06:11:48;;;;;;;13.17;5.27;;;10.40;99.90;;;;;;5035339;28;20559;-84
2023/10/05 06:14:14;;;;;;;10.27;4.77;;;10.40;99.90;;;;;;5033840;28;20193;-84
2023/10/05 06:16:39;;;;;;;9.03;4.87;;;10.50;99.90;;;;;;5034908;28;20549;-83
2023/10/05 06:19:06;;;;;;;10.17;4.87;;;10.50;99.90;;;;;;5034936;28;20194;-83
2023/10/05 06:21:31;;;;;;;11.33;5.10;;;10.50;99.90;;;;;;5035100;28;20179;-82
2023/10/05 06:23:57;;;;;;;9.47;4.93;;;10.50;99.90;;;;;;5034910;28;20175;-81
2023/10/05 06:26:23;;;;;;;12.17;5.03;;;10.60;99.90;;;;;;5017865;28;20291;-81
2023/10/05 06:28:49;;;;;;;8.83;4.33;;;10.70;99.90;;;;;;5034323;28;20190;-81
2023/10/05 06:31:14;;;;;;;11.83;4.80;;;10.80;99.90;;;;;;5026624;28;20190;-79
2023/10/05 06:33:42;;;;;;;9.80;4.97;;;10.80;99.90;;;;;;5010562;28;20167;-81
2023/10/05 06:36:08;;;;;;;9.03;5.17;;;10.70;99.90;;;;;;5034396;28;20174;-83
2023/10/05 06:38:35;;;;;;;11.10;5.13;;;10.70;99.90;;;;;;5034043;28;20193;-81
2023/10/05 06:41:00;;;;;;;8.53;4.70;;;10.70;99.90;;;;;;5034157;28;20170;-80
2023/10/05 06:43:26;;;;;;;13.07;5.30;;;10.70;99.90;;;;;;5034150;28;20261;-82
2023/10/05 06:45:52;;;;;;;13.10;5.27;;;10.70;99.90;;;;;;5016396;28;20190;-81
2023/10/05 06:48:18;;;;;;;6.90;4.60;;;10.60;99.90;;;;;;5016900;28;20424;-81
2023/10/05 06:50:44;;;;;;;9.37;5.20;;;10.60;99.90;;;;;;5034910;28;20186;-82
2023/10/05 06:53:12;;;;;;;9.87;4.80;;;10.60;99.90;;;;;;5017708;28;20174;-80
2023/10/05 06:55:39;;;;;;;11.43;5.40;;;10.50;99.90;;;;;;5035445;28;20170;-81
2023/10/05 06:58:04;;;;;;;8.90;4.63;;;10.50;99.90;;;;;;5035304;28;20248;-82
2023/10/05 07:00:30;;;;;;;10.57;5.23;;;10.60;99.90;;;;;;5017436;28;20178;-80
2023/10/05 07:03:05;;;;;;;8.83;4.80;;;10.60;99.90;;;;;;5035152;28;20704;-81
2023/10/05 07:05:32;;;;;;;8.40;4.90;;;10.60;99.90;;;;;;5017871;28;20293;-80
2023/10/05 07:07:58;;;;;;;9.63;5.13;;;10.60;99.90;;;;;;5035857;28;20741;-81
2023/10/05 07:10:24;;;;;;;9.00;5.40;;;10.60;99.90;;;;;;5035208;28;20201;-81
2023/10/05 07:12:50;;;;;;;9.83;5.20;;;10.70;99.90;;;;;;5034019;28;20192;-81
2023/10/05 07:15:20;;;;;;;10.97;4.90;;;10.70;99.90;;;;;;5035045;28;20174;-81
2023/10/05 07:17:48;;;;;;;9.33;5.17;;;10.80;99.90;;;;;;5035622;28;20206;-81
2023/10/05 07:20:16;;;;;;;10.77;5.20;;;10.80;99.90;;;;;;5035365;28;20200;-81
2023/10/05 07:22:43;;;;;;;9.63;5.43;;;10.90;99.90;;;;;;5033744;28;20184;-81
2023/10/05 07:25:14;;;;;;;9.63;5.63;;;11.00;99.90;;;;;;5035176;28;20205;-80
2023/10/05 07:27:43;;;;;;;9.83;5.30;;;11.00;99.90;;;;;;5034685;28;20193;-81
2023/10/05 07:30:09;;;;;;;10.47;5.50;;;11.00;99.90;;;;;;5035107;28;20174;-81
2023/10/05 07:32:35;;;;;;;9.57;5.30;;;11.10;99.90;;;;;;5016908;28;20174;-80
2023/10/05 07:35:01;;;;;;;11.37;5.37;;;11.20;99.90;;;;;;5034619;28;20662;-81
2023/10/05 07:37:27;;;;;;;13.03;6.13;;;11.20;99.90;;;;;;5034488;28;20170;-81
2023/10/05 07:39:54;;;;;;;10.47;5.53;;;11.20;99.90;;;;;;5016552;28;20182;-81
2023/10/05 07:42:20;;;;;;;8.90;5.07;;;11.20;99.90;;;;;;5033259;28;20182;-81
2023/10/05 07:44:45;;;;;;;11.03;5.33;;;11.20;99.90;;;;;;5016542;28;20189;-81
2023/10/05 07:47:15;;;;;;;8.17;5.40;;;11.30;99.90;;;;;;5034614;28;20193;-81
2023/10/05 07:49:41;;;;;;;8.07;5.00;;;11.40;99.90;;;;;;5034325;28;20198;-81
2023/10/05 07:52:10;;;;;;;12.70;5.40;;;11.40;99.90;;;;;;5032865;28;20170;-81
2023/10/05 07:54:38;;;;;;;9.87;5.20;;;11.50;99.90;;;;;;5032940;28;20174;-81
2023/10/05 07:57:04;;;;;;;12.23;5.03;;;11.60;99.90;;;;;;5033184;28;20184;-81
2023/10/05 07:59:30;;;;;;;10.57;5.40;;;11.60;99.90;;;;;;5016336;28;20198;-81
2023/10/05 08:01:56;;;;;;;13.33;5.90;;;11.70;99.90;;;;;;5016567;28;20758;-81
2023/10/05 08:04:22;;;;;;;8.87;4.83;;;11.80;99.90;;;;;;5033142;28;20265;-82
2023/10/05 08:06:52;;;;;;;9.97;5.67;;;11.80;99.90;;;;;;5016687;28;20290;-81
2023/10/05 08:09:20;;;;;;;11.13;5.70;;;11.90;99.90;;;;;;5016381;28;20217;-81
2023/10/05 08:11:50;;;;;;;8.23;5.37;;;11.90;99.90;;;;;;5032778;28;20185;-81
2023/10/05 08:14:17;;;;;;;11.80;5.67;;;12.00;99.90;;;;;;5034075;28;20254;-81
2023/10/05 08:16:44;;;;;;;10.37;5.07;;;12.00;99.90;;;;;;5016350;28;20562;-82
2023/10/05 08:19:09;;;;;;;10.87;5.50;;;12.10;99.90;;;;;;5015899;28;20194;-81
2023/10/05 08:21:35;;;;;;;10.63;5.50;;;12.10;99.90;;;;;;5032322;28;20176;-80
2023/10/05 08:24:02;;;;;;;10.53;5.43;;;12.10;99.90;;;;;;5033890;28;20257;-83
2023/10/05 08:26:28;;;;;;;9.13;5.63;;;12.10;99.90;;;;;;5033973;28;20276;-81
2023/10/05 08:28:57;;;;;;;9.37;5.60;;;12.10;99.90;;;;;;5033370;28;20268;-81
2023/10/05 08:31:24;;;;;;;10.87;5.87;;;12.10;99.90;;;;;;5033149;28;20180;-81
2023/10/05 08:33:52;;;;;;;8.13;4.90;;;12.10;99.90;;;;;;5031811;28;20224;-81
2023/10/05 08:36:18;;;;;;;8.33;5.50;;;12.30;99.90;;;;;;5032191;28;20261;-81
2023/10/05 08:38:48;;;;;;;8.97;5.70;;;12.30;99.90;;;;;;5033625;28;20198;-81
2023/10/05 08:41:36;;;;;;;11.80;5.43;;;12.50;99.90;;;;;;5032859;28;20194;-81
2023/10/05 08:44:10;;;;;;;13.37;6.20;;;12.70;99.90;;;;;;5032030;28;20174;-81
2023/10/05 08:46:44;;;;;;;11.27;6.77;;;13.00;99.90;;;;;;5033102;28;20252;-81
2023/10/05 08:49:11;;;;;;;10.13;6.80;;;13.20;99.90;;;;;;5033057;28;20217;-81
2023/10/05 08:51:40;;;;;;;10.13;5.40;;;13.40;99.90;;;;;;5017369;28;20186;-80
2023/10/05 08:54:13;;;;;;;12.47;5.43;;;13.40;99.90;;;;;;5003897;28;20229;-86
2023/10/05 08:56:40;;;;;;;8.93;5.07;;;13.30;99.90;;;;;;5014470;28;20232;-86
2023/10/05 08:59:07;;;;;;;7.23;4.80;;;13.30;99.90;;;;;;5032361;28;20202;-86
2023/10/05 09:01:35;;;;;;;8.17;4.43;;;13.30;99.90;;;;;;5031286;28;20170;-86
2023/10/05 09:07:14;;;;;;;7.67;4.43;;;13.20;99.90;;;;;;5020517;28;20289;-88
2023/10/05 09:09:53;;;;;;;8.70;5.00;;;13.40;99.90;;;;;;5025505;28;20185;-85
2023/10/05 09:12:34;;;;;;;8.70;4.97;;;13.70;99.90;;;;;;5014189;28;20264;-85
2023/10/05 09:15:08;;;;;;;7.33;4.33;;;13.90;99.90;;;;;;5014261;28;20176;-87
2023/10/05 09:17:34;;;;;;;9.30;4.47;;;14.00;99.90;;;;;;5006745;28;20612;-84
2023/10/05 09:20:21;;;;;;;8.27;4.60;;;14.20;99.90;;;;;;5030611;28;20545;-85
2023/10/05 09:22:51;;;;;;;6.67;4.10;;;14.30;1.00;;;;;;5030657;28;20170;-83
2023/10/05 09:25:26;;;;;;;8.77;4.30;;;14.40;1.90;;;;;;5030929;28;20201;-82
2023/10/05 09:27:52;;;;;;;7.20;4.00;;;14.50;1.00;;;;;;5032078;28;20205;-83
2023/10/05 09:30:22;;;;;;;9.13;4.23;;;14.50;61.70;;;;;;5032214;28;20224;-82
2023/10/05 09:32:48;;;;;;;7.77;4.33;;;14.50;1.00;;;;;;5030737;28;20194;-83
2023/10/05 09:35:26;;;;;;;6.30;3.83;;;14.50;16.70;;;;;;5030771;28;20184;-83
2023/10/05 09:37:57;;;;;;;6.07;3.60;;;14.40;15.30;;;;;;5032126;28;20186;-83
2023/10/05 09:40:23;;;;;;;10.57;3.73;;;14.40;1.00;;;;;;5031860;28;20170;-85
2023/10/05 09:42:53;;;;;;;5.53;3.90;;;14.50;1.00;;;;;;5031698;28;20170;-82
2023/10/05 09:45:20;;;;;;;6.90;4.00;;;14.70;1.00;;;;;;5014188;28;20248;-84
2023/10/05 09:47:47;;;;;;;10.37;3.90;;;14.70;1.00;;;;;;5030542;28;20175;-83
2023/10/05 09:50:15;;;;;;;11.90;4.23;;;14.80;1.00;;;;;;5030571;28;20639;-86
2023/10/05 09:52:46;;;;;;;8.07;4.10;;;14.80;1.00;;;;;;5030849;28;20273;-81
2023/10/05 09:55:18;;;;;;;8.13;3.60;;;14.70;1.00;;;;;;5032532;28;20209;-82
2023/10/05 09:57:51;;;;;;;7.40;3.90;;;14.90;56.00;;;;;;5031925;28;20194;-82
2023/10/05 10:02:56;;;;;;;6.17;3.17;;;15.30;1.00;;;;;;5031706;28;20189;-83
2023/10/05 10:05:30;;;;;;;5.60;3.33;;;15.30;1.00;;;;;;5013839;28;20241;-83
2023/10/05 10:07:59;;;;;;;7.27;3.57;;;15.30;1.00;;;;;;5017839;28;20570;-81
2023/10/05 10:10:26;;;;;;;5.40;3.20;;;15.30;1.00;;;;;;5035581;28;20174;-82
2023/10/05 10:12:52;;;;;;;7.33;3.53;;;15.30;1.00;;;;;;5035331;28;20642;-82
2023/10/05 10:15:33;;;;;;;6.37;3.10;;;15.30;1.00;;;;;;5035274;28;20166;-82
2023/10/05 10:18:09;;;;;;;7.90;3.40;;;15.10;1.00;;;;;;5035095;28;20208;-82
2023/10/05 10:20:37;;;;;;;10.67;6.73;;;15.10;1.00;;;;;;5034120;28;20257;-85
2023/10/05 10:23:21;;;;;;;7.53;4.07;;;15.10;99.90;;;;;;5017362;28;20178;-85
2023/10/05 10:25:50;;;;;;;6.80;2.93;;;15.20;3.10;;;;;;5035302;28;20202;-85
2023/10/05 10:28:24;;;;;;;5.73;2.73;;;15.20;1.00;;;;;;5034836;28;20194;-83
2023/10/05 10:31:15;;;;;;;6.83;2.90;;;15.20;1.00;;;;;;5034985;28;20669;-84
2023/10/05 10:33:42;;;;;;;6.93;3.03;;;14.90;99.90;;;;;;5035065;28;20163;-82
2023/10/05 10:36:18;;;;;;;6.67;2.70;;;14.70;1.00;;;;;;5034910;28;20224;-83
2023/10/05 10:38:50;;;;;;;4.47;2.60;;;14.80;1.00;;;;;;5017077;28;20189;-82
2023/10/05 10:41:16;;;;;;;5.07;2.50;;;15.00;1.00;;;;;;5017258;28;20182;-81
2023/10/05 10:43:52;;;;;;;4.60;2.40;;;15.00;1.00;;;;;;5034796;28;20232;-81
2023/10/05 10:46:34;;;;;;;6.00;2.50;;;15.00;1.00;;;;;;5017009;28;20204;-83
2023/10/05 10:49:00;;;;;;;5.93;2.70;;;15.00;1.00;;;;;;5016966;28;20554;-83
2023/10/05 10:51:37;;;;;;;5.20;2.30;;;15.00;1.00;;;;;;5034370;28;20174;-83
2023/10/05 10:54:14;;;;;;;6.17;2.50;;;14.90;1.00;;;;;;5016809;28;20170;-86
2023/10/05 10:56:44;;;;;;;5.60;2.87;;;14.80;1.00;;;;;;5034680;28;20608;-85
2023/10/05 10:59:20;;;;;;;4.20;2.17;;;14.80;1.00;;;;;;5034053;28;20190;-86
2023/10/05 11:01:52;;;;;;;5.10;2.40;;;15.00;1.00;;;;;;5032874;28;20184;-86
2023/10/05 11:04:29;;;;;;;4.80;2.40;;;15.10;1.00;;;;;;5033577;28;20261;-82
2023/10/05 11:07:05;;;;;;;4.60;2.40;;;15.20;1.00;;;;;;5033300;28;20197;-83
2023/10/05 11:09:35;;;;;;;8.13;2.47;;;15.20;1.00;;;;;;5034466;28;20186;-82
2023/10/05 11:12:10;;;;;;;5.90;2.10;;;15.20;1.00;;;;;;5034385;28;20181;-82
2023/10/05 11:14:42;;;;;;;5.07;2.20;;;15.10;1.00;;;;;;5033181;28;20194;-83
2023/10/05 11:17:43;;;;;;;4.03;2.20;;;15.20;1.00;;;;;;5032971;28;20681;-82
2023/10/05 11:20:23;;;;;;;4.83;2.33;;;15.30;1.00;;;;;;5034318;28;20162;-83
2023/10/05 11:22:54;;;;;;;4.57;2.00;;;15.30;1.00;;;;;;5033140;28;20179;-83
2023/10/05 11:25:33;;;;;;;6.97;2.60;;;15.20;99.90;;;;;;5034292;28;20194;-82
2023/10/05 11:28:00;;;;;;;6.47;2.27;;;15.20;1.00;;;;;;5034170;28;20273;-83
2023/10/05 11:30:41;;;;;;;6.33;2.33;;;15.30;1.00;;;;;;5034057;28;20240;-82
2023/10/05 11:33:15;;;;;;;6.17;2.47;;;15.30;1.00;;;;;;5020242;28;20178;-83
2023/10/05 11:35:48;;;;;;;4.80;2.50;;;15.30;1.00;;;;;;5034616;28;20266;-83
2023/10/05 11:38:16;;;;;;;7.63;3.27;;;15.30;1.00;;;;;;5034029;28;20199;-82
2023/10/05 11:40:55;;;;;;;4.00;2.30;;;15.30;1.00;;;;;;5016010;28;20174;-82
2023/10/05 11:43:22;;;;;;;7.30;2.33;;;15.30;99.90;;;;;;5033660;28;20197;-82
2023/10/05 11:45:59;;;;;;;4.20;2.17;;;15.40;1.00;;;;;;5016106;28;20202;-82
2023/10/05 11:48:41;;;;;;;6.30;2.30;;;15.40;1.00;;;;;;5015966;28;20216;-82
2023/10/05 11:51:13;;;;;;;4.23;1.87;;;15.40;1.00;;;;;;5015426;28;20179;-83
2023/10/05 11:53:39;;;;;;;4.90;2.10;;;15.40;1.00;;;;;;5012243;28;20225;-84
2023/10/05 11:56:05;;;;;;;4.67;2.23;;;15.40;99.90;;;;;;5015680;28;20201;-83
2023/10/05 11:58:40;;;;;;;4.40;2.37;;;15.30;1.00;;;;;;5033613;28;20194;-82
2023/10/05 12:01:06;;;;;;;4.93;2.00;;;15.20;1.00;;;;;;5033241;28;20189;-82
2023/10/05 12:03:31;;;;;;;4.20;2.20;;;15.20;1.00;;;;;;5015628;28;20692;-82
2023/10/05 12:06:00;;;;;;;5.70;2.40;;;15.20;99.90;;;;;;5032947;28;20737;-83
2023/10/05 12:08:34;;;;;;;5.10;2.10;;;15.20;99.90;;;;;;5032963;28;20195;-83
2023/10/05 12:11:00;;;;;;;3.80;1.93;;;15.30;99.90;;;;;;5032882;28;20174;-83
2023/10/05 12:13:29;;;;;;;4.17;2.20;;;15.30;99.90;;;;;;5032945;28;20232;-83
2023/10/05 12:15:55;;;;;;;4.30;2.10;;;15.30;99.90;;;;;;5032937;28;20174;-82
2023/10/05 12:18:22;;;;;;;4.90;2.20;;;15.30;1.00;;;;;;5015453;28;20268;-83
2023/10/05 12:20:50;;;;;;;3.80;1.87;;;15.40;1.00;;;;;;5032726;28;20175;-82
2023/10/05 12:23:17;;;;;;;3.37;2.20;;;15.40;99.90;;;;;;5032792;28;20183;-83
2023/10/05 12:25:44;;;;;;;3.97;2.20;;;15.40;99.90;;;;;;5031369;28;20196;-82
2023/10/05 12:28:11;;;;;;;4.63;2.00;;;15.30;1.00;;;;;;5031024;28;20209;-83
2023/10/05 12:30:44;;;;;;;4.50;2.20;;;15.30;1.00;;;;;;5014917;28;20175;-83
2023/10/05 12:33:12;;;;;;;5.63;2.40;;;15.30;1.00;;;;;;5031371;28;20189;-85
2023/10/05 12:35:38;;;;;;;4.80;2.00;;;15.30;1.00;;;;;;5032390;28;20721;-83
2023/10/05 12:38:06;;;;;;;3.63;2.10;;;15.30;99.90;;;;;;5014531;28;20281;-84
2023/10/05 12:40:40;;;;;;;5.60;2.10;;;15.30;1.00;;;;;;5031125;28;20170;-83
2023/10/05 12:43:06;;;;;;;5.07;2.03;;;15.30;99.90;;;;;;5031675;28;20189;-83
2023/10/05 12:45:32;;;;;;;5.27;2.13;;;15.30;99.90;;;;;;5014659;28;20190;-83
2023/10/05 12:50:28;;;;;;;4.83;2.20;;;15.30;99.90;;;;;;4972565;28;20204;-84
2023/10/05 12:52:56;;;;;;;7.97;2.40;;;15.30;1.00;;;;;;4973567;28;20308;-83
2023/10/05 12:55:22;;;;;;;5.37;2.40;;;15.30;99.90;;;;;;4987913;28;20668;-82
2023/10/05 12:57:53;;;;;;;4.50;2.10;;;15.20;1.00;;;;;;4988698;28;20181;-82
2023/10/05 13:00:19;;;;;;;4.50;1.90;;;15.20;1.00;;;;;;4973759;28;20208;-82
2023/10/05 13:02:55;;;;;;;5.70;2.20;;;15.30;1.00;;;;;;4972471;28;20671;-83
2023/10/05 13:05:24;;;;;;;5.60;2.30;;;15.20;99.90;;;;;;4972140;28;20200;-82
2023/10/05 13:07:50;;;;;;;4.43;2.30;;;15.20;1.00;;;;;;4972439;28;20172;-82
2023/10/05 13:10:32;;;;;;;5.37;2.10;;;15.20;1.00;;;;;;4973594;28;20192;-82
2023/10/05 13:13:01;;;;;;;3.07;2.00;;;15.20;1.00;;;;;;4981143;28;20176;-82
2023/10/05 13:15:35;;;;;;;5.03;2.23;;;15.30;1.00;;;;;;4973526;28;20186;-82
2023/10/05 13:18:21;;;;;;;6.30;2.60;;;15.30;1.00;;;;;;4973581;28;20178;-81
2023/10/05 13:20:52;;;;;;;6.70;2.23;;;15.30;99.90;;;;;;4988478;28;20176;-86
2023/10/05 13:23:21;;;;;;;4.77;2.00;;;15.20;1.00;;;;;;4973926;28;20227;-82
2023/10/05 13:25:51;;;;;;;3.67;2.17;;;15.20;1.00;;;;;;4973206;28;20705;-84
2023/10/05 13:28:24;;;;;;;4.60;2.17;;;15.20;99.90;;;;;;4973545;28;20666;-82
2023/10/05 13:30:55;;;;;;;4.27;2.67;;;15.20;99.90;;;;;;4971977;28;20172;-81
2023/10/05 13:33:28;;;;;;;4.00;1.90;;;15.10;1.00;;;;;;4973635;28;20176;-82